createdAt,value
2023-03-29T00:00:34.546Z,3.53
2023-03-29T00:03:04.461Z,5.57
2023-03-29T00:05:35.379Z,3.67
2023-03-29T00:08:04.593Z,4.15
2023-03-29T00:10:34.187Z,4.80
2023-03-29T00:13:03.017Z,4.63
2023-03-29T00:15:31.163Z,3.60
2023-03-29T00:17:59.334Z,4.97
2023-03-29T00:20:29.066Z,4.55
2023-03-29T00:22:57.123Z,6.43
2023-03-29T00:25:25.341Z,4.53
2023-03-29T00:27:53.458Z,4.22
2023-03-29T00:30:21.485Z,6.03
2023-03-29T00:32:49.615Z,4.43
2023-03-29T00:35:18.030Z,7.03
2023-03-29T00:37:47.545Z,4.82
2023-03-29T00:40:15.859Z,5.38
2023-03-29T00:42:47.029Z,6.93
2023-03-29T00:45:26.421Z,8.30
2023-03-29T00:48:02.633Z,6.15
2023-03-29T00:50:49.340Z,4.65
2023-03-29T00:53:49.269Z,4.43
2023-03-29T00:56:35.566Z,7.95
2023-03-29T00:59:17.928Z,5.47
2023-03-29T01:01:54.582Z,4.15
2023-03-29T01:04:43.091Z,7.40
2023-03-29T01:07:43.319Z,5.32
2023-03-29T01:10:17.503Z,7.43
2023-03-29T01:12:56.925Z,7.28
2023-03-29T01:15:27.440Z,6.55
2023-03-29T01:17:58.753Z,4.38
2023-03-29T01:20:51.949Z,4.40
2023-03-29T01:23:22.877Z,8.17
2023-03-29T01:26:01.449Z,8.15
2023-03-29T01:28:39.427Z,4.50
2023-03-29T01:31:12.842Z,4.50
2023-03-29T01:33:48.696Z,4.93
2023-03-29T01:36:38.502Z,4.22
2023-03-29T01:39:07.604Z,4.60
2023-03-29T01:41:58.796Z,5.65
2023-03-29T01:44:47.656Z,4.38
2023-03-29T01:47:18.929Z,4.35
2023-03-29T01:50:00.690Z,6.57
2023-03-29T01:52:55.019Z,10.05
2023-03-29T01:55:32.828Z,7.05
2023-03-29T01:58:04.812Z,6.20
2023-03-29T02:00:35.172Z,5.82
2023-03-29T02:03:08.971Z,9.10
2023-03-29T02:05:39.870Z,9.57
2023-03-29T02:08:11.201Z,5.22
2023-03-29T02:10:39.478Z,5.50
2023-03-29T02:13:07.678Z,5.60
2023-03-29T02:15:35.995Z,8.52
2023-03-29T02:18:07.011Z,7.20
2023-03-29T02:20:42.879Z,10.10
2023-03-29T02:23:35.720Z,7.78
2023-03-29T02:26:04.350Z,6.37
2023-03-29T02:28:33.532Z,12.00
2023-03-29T02:31:08.214Z,4.50
2023-03-29T02:33:53.423Z,9.60
2023-03-29T02:36:23.907Z,8.02
2023-03-29T02:38:53.450Z,5.28
2023-03-29T02:41:24.058Z,7.53
2023-03-29T02:43:56.162Z,9.50
2023-03-29T02:46:24.788Z,6.18
2023-03-29T02:48:54.821Z,5.32
2023-03-29T02:51:28.904Z,7.05
2023-03-29T02:54:08.516Z,7.20
2023-03-29T02:56:45.475Z,5.80
2023-03-29T02:59:14.473Z,5.45
2023-03-29T03:01:45.837Z,6.53
2023-03-29T03:04:16.093Z,8.00
2023-03-29T03:06:45.101Z,7.20
2023-03-29T03:09:13.815Z,7.78
2023-03-29T03:11:44.516Z,6.40
2023-03-29T03:14:12.764Z,8.57
2023-03-29T03:16:41.318Z,6.18
2023-03-29T03:19:10.854Z,5.55
2023-03-29T03:21:38.807Z,9.88
2023-03-29T03:24:07.864Z,8.50
2023-03-29T03:26:38.508Z,6.30
2023-03-29T03:29:07.738Z,6.72
2023-03-29T03:31:56.102Z,6.40
2023-03-29T03:34:56.309Z,9.63
2023-03-29T03:37:28.014Z,7.45
2023-03-29T03:39:56.756Z,6.53
2023-03-29T03:42:30.286Z,9.32
2023-03-29T03:44:59.785Z,6.43
2023-03-29T03:47:48.282Z,10.85
2023-03-29T03:50:35.783Z,9.45
2023-03-29T03:53:03.816Z,12.73
2023-03-29T03:55:54.718Z,10.23
2023-03-29T03:58:27.645Z,5.93
2023-03-29T04:00:55.649Z,8.00
2023-03-29T04:03:38.121Z,8.80
2023-03-29T04:06:07.147Z,7.38
2023-03-29T04:08:55.108Z,7.00
2023-03-29T04:11:34.456Z,11.82
2023-03-29T04:14:03.066Z,16.67
2023-03-29T04:17:03.357Z,8.43
2023-03-29T04:19:54.183Z,8.32
2023-03-29T04:22:22.116Z,10.90
2023-03-29T04:24:51.629Z,11.50
2023-03-29T04:27:52.069Z,11.45
2023-03-29T04:30:47.248Z,12.90
2023-03-29T04:33:21.294Z,9.55
2023-03-29T04:35:55.847Z,8.02
2023-03-29T04:38:24.002Z,10.55
2023-03-29T04:40:55.259Z,8.80
2023-03-29T04:43:49.580Z,10.98
2023-03-29T04:46:27.796Z,14.57
2023-03-29T04:49:14.561Z,6.57
2023-03-29T04:51:46.625Z,12.47
2023-03-29T04:54:17.072Z,12.85
2023-03-29T04:57:07.277Z,5.10
2023-03-29T04:59:58.222Z,5.90
2023-03-29T05:02:55.280Z,8.00
2023-03-29T05:05:24.637Z,11.43
2023-03-29T05:07:55.081Z,8.20
2023-03-29T05:10:28.538Z,5.90
2023-03-29T05:12:57.141Z,6.05
2023-03-29T05:15:25.502Z,7.85
2023-03-29T05:17:53.754Z,7.85
2023-03-29T05:20:22.440Z,6.88
2023-03-29T05:22:50.983Z,9.85
2023-03-29T05:25:38.801Z,5.53
2023-03-29T05:28:06.770Z,9.35
2023-03-29T05:30:35.120Z,10.88
2023-03-29T05:33:14.268Z,6.07
2023-03-29T05:35:42.399Z,11.68
2023-03-29T05:38:10.616Z,6.55
2023-03-29T05:40:38.943Z,9.85
2023-03-29T05:43:42.488Z,7.97
2023-03-29T05:46:10.552Z,6.45
2023-03-29T05:48:42.956Z,7.87
2023-03-29T05:51:11.466Z,7.25
2023-03-29T05:53:39.494Z,11.07
2023-03-29T05:56:09.345Z,10.60
2023-03-29T05:58:38.420Z,14.43
2023-03-29T06:01:13.158Z,10.80
2023-03-29T06:04:04.356Z,9.70
2023-03-29T06:06:53.292Z,14.23
2023-03-29T06:09:21.823Z,13.00
2023-03-29T06:12:02.031Z,10.35
2023-03-29T06:14:30.144Z,12.48
2023-03-29T06:17:16.484Z,18.13
2023-03-29T06:19:44.773Z,8.82
2023-03-29T06:22:14.690Z,25.35
2023-03-29T06:24:43.655Z,15.98
2023-03-29T06:27:22.566Z,14.35
2023-03-29T06:29:51.847Z,26.73
2023-03-29T06:32:20.244Z,13.95
2023-03-29T06:34:52.086Z,15.48
2023-03-29T06:37:53.824Z,23.80
2023-03-29T06:40:38.283Z,11.50
2023-03-29T06:43:07.576Z,23.00
2023-03-29T06:45:55.056Z,19.20
2023-03-29T06:48:41.298Z,8.82
2023-03-29T06:51:09.432Z,9.43
2023-03-29T06:53:38.068Z,9.45
2023-03-29T06:56:09.642Z,11.95
2023-03-29T06:58:45.775Z,9.65
2023-03-29T07:01:49.489Z,10.48
2023-03-29T07:04:24.955Z,13.13
2023-03-29T07:07:20.204Z,16.02
2023-03-29T07:09:55.791Z,6.18
2023-03-29T07:13:02.244Z,7.25
2023-03-29T07:15:30.454Z,6.35
2023-03-29T07:18:22.023Z,10.55
2023-03-29T07:20:50.439Z,9.27
2023-03-29T07:23:18.626Z,6.35
2023-03-29T07:25:48.402Z,8.23
2023-03-29T07:28:16.874Z,10.40
2023-03-29T07:30:44.894Z,10.88
2023-03-29T07:33:16.568Z,7.35
2023-03-29T07:35:57.474Z,9.77
2023-03-29T07:38:26.366Z,8.15
2023-03-29T07:41:08.281Z,9.73
2023-03-29T07:43:37.770Z,6.32
2023-03-29T07:46:17.384Z,6.82
2023-03-29T07:48:45.448Z,11.68
2023-03-29T07:51:16.777Z,10.27
2023-03-29T07:54:01.374Z,14.88
2023-03-29T07:56:32.539Z,8.50
2023-03-29T07:59:23.657Z,10.05
2023-03-29T08:02:04.510Z,8.93
2023-03-29T08:04:37.645Z,7.47
2023-03-29T08:07:21.629Z,9.50
2023-03-29T08:09:56.780Z,10.77
2023-03-29T08:12:37.883Z,8.40
2023-03-29T08:15:07.034Z,8.50
2023-03-29T08:17:36.610Z,10.02
2023-03-29T08:20:09.773Z,13.98
2023-03-29T08:22:40.657Z,14.88
2023-03-29T08:25:09.316Z,11.10
2023-03-29T08:27:43.532Z,8.23
2023-03-29T08:30:15.008Z,8.90
2023-03-29T08:32:43.094Z,12.70
2023-03-29T08:35:11.892Z,11.30
2023-03-29T08:37:47.486Z,9.85
2023-03-29T08:40:24.469Z,8.65
2023-03-29T08:43:16.520Z,14.02
2023-03-29T08:46:24.206Z,11.27
2023-03-29T08:49:04.763Z,16.63
2023-03-29T08:51:43.094Z,11.90
2023-03-29T08:54:25.248Z,10.95
2023-03-29T08:57:28.355Z,8.15
2023-03-29T09:00:05.720Z,10.05
2023-03-29T09:02:37.823Z,12.02
2023-03-29T09:05:24.977Z,12.98
2023-03-29T09:08:14.025Z,9.02
2023-03-29T09:11:18.175Z,9.32
2023-03-29T09:16:23.699Z,8.32
2023-03-29T09:19:19.908Z,6.85
2023-03-29T09:22:16.326Z,10.38
2023-03-29T09:24:56.673Z,10.15
2023-03-29T09:27:48.225Z,9.63
2023-03-29T09:31:02.769Z,9.82
2023-03-29T09:33:43.966Z,9.20
2023-03-29T09:36:26.391Z,7.50
2023-03-29T09:38:55.981Z,9.23
2023-03-29T09:41:52.670Z,8.40
2023-03-29T09:44:30.979Z,6.38
2023-03-29T09:47:25.346Z,9.15
2023-03-29T09:50:02.882Z,7.88
2023-03-29T09:52:31.501Z,7.47
2023-03-29T09:55:15.301Z,10.18
2023-03-29T09:57:53.803Z,9.30
2023-03-29T10:00:22.606Z,6.82
2023-03-29T10:02:58.108Z,7.85
2023-03-29T10:05:38.366Z,8.15
2023-03-29T10:08:20.466Z,8.93
2023-03-29T10:10:48.972Z,10.38
2023-03-29T10:13:23.341Z,10.95
2023-03-29T10:16:09.600Z,7.25
2023-03-29T10:18:42.764Z,8.07
2023-03-29T10:21:16.123Z,10.27
2023-03-29T10:23:44.550Z,8.02
2023-03-29T10:26:32.761Z,12.43
2023-03-29T10:29:04.907Z,8.48
2023-03-29T10:31:33.773Z,8.98
2023-03-29T10:34:05.326Z,9.32
2023-03-29T10:36:34.367Z,9.05
2023-03-29T10:39:06.238Z,9.13
2023-03-29T10:41:36.065Z,8.90
2023-03-29T10:44:05.258Z,10.05
2023-03-29T10:46:42.439Z,8.25
2023-03-29T10:49:20.919Z,8.43
2023-03-29T10:51:50.918Z,10.23
2023-03-29T10:54:22.423Z,5.43
2023-03-29T10:56:58.777Z,11.02
2023-03-29T10:59:58.230Z,11.13
2023-03-29T11:02:55.446Z,12.00
2023-03-29T11:05:39.296Z,13.52
2023-03-29T11:08:16.390Z,5.97
2023-03-29T11:11:09.115Z,6.53
2023-03-29T11:14:14.847Z,8.07
2023-03-29T11:16:52.777Z,11.75
2023-03-29T11:19:39.175Z,8.13
2023-03-29T11:22:48.991Z,11.90
2023-03-29T11:25:49.442Z,6.88
2023-03-29T11:28:45.929Z,9.45
2023-03-29T11:31:34.862Z,5.00
2023-03-29T11:34:12.659Z,7.50
2023-03-29T11:36:58.510Z,12.85
2023-03-29T11:39:54.730Z,6.93
2023-03-29T11:42:32.343Z,9.52
2023-03-29T11:45:05.259Z,8.55
2023-03-29T11:47:39.475Z,10.65
2023-03-29T11:50:22.233Z,12.88
2023-03-29T11:53:03.629Z,6.40
2023-03-29T11:55:36.777Z,10.68
2023-03-29T12:00:40.728Z,5.63
2023-03-29T12:03:42.222Z,6.65
2023-03-29T12:06:24.768Z,8.20
2023-03-29T12:09:03.289Z,5.40
2023-03-29T12:11:39.017Z,8.95
2023-03-29T12:14:18.151Z,11.50
2023-03-29T12:16:58.756Z,5.05
2023-03-29T12:19:43.721Z,9.52
2023-03-29T12:22:15.127Z,6.75
2023-03-29T12:24:49.337Z,5.97
2023-03-29T12:27:30.468Z,5.32
2023-03-29T12:30:40.245Z,3.28
2023-03-29T12:33:25.348Z,6.00
2023-03-29T12:36:01.929Z,7.50
2023-03-29T12:38:52.609Z,5.18
2023-03-29T12:41:41.813Z,5.50
2023-03-29T12:44:59.244Z,6.53
2023-03-29T12:47:39.875Z,7.57
2023-03-29T12:50:35.717Z,6.00
2023-03-29T12:53:24.374Z,9.70
2023-03-29T12:56:01.952Z,6.97
2023-03-29T12:58:39.578Z,8.95
2023-03-29T13:01:33.832Z,7.22
2023-03-29T13:04:01.901Z,8.32
2023-03-29T13:06:52.217Z,4.93
2023-03-29T13:09:30.658Z,5.25
2023-03-29T13:12:04.932Z,12.45
2023-03-29T13:14:37.551Z,6.60
2023-03-29T13:17:18.378Z,5.03
2023-03-29T13:19:59.112Z,3.15
2023-03-29T13:22:48.248Z,7.47
2023-03-29T13:25:51.553Z,8.30
2023-03-29T13:28:25.329Z,5.18
2023-03-29T13:31:01.944Z,5.47
2023-03-29T13:33:54.843Z,7.72
2023-03-29T13:37:10.145Z,6.43
2023-03-29T13:39:50.123Z,6.75
2023-03-29T13:42:20.108Z,5.43
2023-03-29T13:44:51.851Z,4.43
2023-03-29T13:47:19.722Z,7.38
2023-03-29T13:49:56.554Z,5.15
2023-03-29T13:52:33.495Z,7.13
2023-03-29T13:55:04.911Z,6.82
2023-03-29T13:58:04.296Z,5.75
2023-03-29T14:00:42.225Z,5.20
2023-03-29T14:03:14.667Z,7.78
2023-03-29T14:05:48.962Z,5.00
2023-03-29T14:08:36.777Z,7.60
2023-03-29T14:11:07.208Z,6.43
2023-03-29T14:13:39.380Z,4.88
2023-03-29T14:16:11.929Z,5.25
2023-03-29T14:21:12.891Z,8.10
2023-03-29T14:23:44.712Z,6.38
2023-03-29T14:26:19.650Z,5.90
2023-03-29T14:28:56.836Z,6.38
2023-03-29T14:31:37.235Z,6.68
2023-03-29T14:34:12.003Z,7.47
2023-03-29T14:36:40.411Z,9.85
2023-03-29T14:39:21.353Z,8.20
2023-03-29T14:41:59.256Z,7.18
2023-03-29T14:44:34.824Z,5.18
2023-03-29T14:47:03.557Z,6.40
2023-03-29T14:49:32.314Z,6.38
2023-03-29T14:52:00.496Z,7.72
2023-03-29T14:54:32.971Z,8.60
2023-03-29T14:57:07.432Z,8.93
2023-03-29T14:59:37.175Z,10.80
2023-03-29T15:02:30.098Z,10.77
2023-03-29T15:05:24.907Z,6.75
2023-03-29T15:07:56.456Z,9.73
2023-03-29T15:10:24.657Z,8.35
2023-03-29T15:12:53.976Z,10.73
2023-03-29T15:15:25.929Z,7.88
2023-03-29T15:17:54.105Z,6.45
2023-03-29T15:20:27.321Z,6.57
2023-03-29T15:22:58.210Z,9.80
2023-03-29T15:25:35.382Z,7.38
2023-03-29T15:28:05.243Z,10.45
2023-03-29T15:30:39.841Z,9.63
2023-03-29T15:33:16.605Z,8.15
2023-03-29T15:35:49.620Z,7.78
2023-03-29T15:38:18.298Z,8.77
2023-03-29T15:40:47.947Z,13.32
2023-03-29T15:43:16.159Z,8.65
2023-03-29T15:45:45.432Z,7.30
2023-03-29T15:48:21.877Z,9.50
2023-03-29T15:50:49.986Z,10.25
2023-03-29T15:53:20.332Z,10.20
2023-03-29T15:55:53.181Z,9.32
2023-03-29T15:58:30.852Z,7.75
2023-03-29T16:01:11.342Z,8.52
2023-03-29T16:03:40.523Z,9.98
2023-03-29T16:06:12.466Z,13.80
2023-03-29T16:08:41.911Z,6.80
2023-03-29T16:11:10.092Z,15.13
2023-03-29T16:13:38.166Z,6.65
2023-03-29T16:16:06.966Z,7.55
2023-03-29T16:18:36.143Z,11.90
2023-03-29T16:21:04.993Z,10.82
2023-03-29T16:23:33.053Z,11.43
2023-03-29T16:26:01.167Z,8.23
2023-03-29T16:28:29.359Z,10.00
2023-03-29T16:30:57.332Z,10.30
2023-03-29T16:33:25.330Z,13.00
2023-03-29T16:35:53.295Z,9.13
2023-03-29T16:38:24.287Z,14.88
2023-03-29T16:40:52.813Z,9.10
2023-03-29T16:43:21.145Z,11.63
2023-03-29T16:45:49.154Z,10.93
2023-03-29T16:48:19.123Z,8.63
2023-03-29T16:50:51.234Z,9.77
2023-03-29T16:53:21.821Z,8.83
2023-03-29T16:55:50.045Z,8.50
2023-03-29T16:58:18.069Z,12.73
2023-03-29T17:00:48.283Z,16.33
2023-03-29T17:03:17.079Z,6.18
2023-03-29T17:05:53.090Z,11.73
2023-03-29T17:08:22.271Z,12.18
2023-03-29T17:10:55.683Z,6.38
2023-03-29T17:13:24.510Z,10.55
2023-03-29T17:15:54.707Z,11.68
2023-03-29T17:18:24.488Z,12.73
2023-03-29T17:20:55.748Z,11.52
2023-03-29T17:23:24.141Z,10.50
2023-03-29T17:25:54.984Z,10.52
2023-03-29T17:28:24.305Z,10.73
2023-03-29T17:30:52.622Z,12.25
2023-03-29T17:33:22.856Z,14.70
2023-03-29T17:35:51.680Z,9.93
2023-03-29T17:38:19.831Z,17.13
2023-03-29T17:40:54.998Z,10.23
2023-03-29T17:43:23.337Z,12.23
2023-03-29T17:45:53.066Z,8.32
2023-03-29T17:48:21.834Z,11.25
2023-03-29T17:50:49.889Z,7.03
2023-03-29T17:53:18.128Z,13.10
2023-03-29T17:55:46.190Z,12.57
2023-03-29T17:58:14.194Z,12.60
2023-03-29T18:00:42.320Z,12.50
2023-03-29T18:03:10.738Z,10.85
2023-03-29T18:05:38.813Z,14.23
2023-03-29T18:08:08.621Z,17.48
2023-03-29T18:10:37.069Z,10.88
2023-03-29T18:13:05.204Z,18.13
2023-03-29T18:15:33.870Z,17.48
2023-03-29T18:18:02.042Z,14.02
2023-03-29T18:20:30.194Z,11.70
2023-03-29T18:22:58.290Z,14.68
2023-03-29T18:25:26.330Z,18.63
2023-03-29T18:27:54.448Z,16.85
2023-03-29T18:30:22.501Z,13.63
2023-03-29T18:32:50.580Z,20.08
2023-03-29T18:35:18.839Z,14.50
2023-03-29T18:37:47.258Z,15.10
2023-03-29T18:40:15.945Z,19.17
2023-03-29T18:42:44.000Z,18.55
2023-03-29T18:45:12.474Z,14.68
2023-03-29T18:47:41.242Z,20.23
2023-03-29T18:50:10.075Z,18.77
2023-03-29T18:52:38.124Z,31.88
2023-03-29T18:55:07.327Z,24.58
2023-03-29T18:57:35.534Z,26.05
2023-03-29T19:00:10.890Z,20.88
2023-03-29T19:02:40.468Z,17.88
2023-03-29T19:05:09.536Z,21.13
2023-03-29T19:07:38.265Z,18.00
2023-03-29T19:10:08.014Z,19.35
2023-03-29T19:12:36.337Z,18.67
2023-03-29T19:15:04.916Z,17.85
2023-03-29T19:17:33.207Z,25.02
2023-03-29T19:20:01.521Z,19.10
2023-03-29T19:22:29.595Z,14.07
2023-03-29T19:24:57.677Z,22.92
2023-03-29T19:27:26.194Z,19.30
2023-03-29T19:29:54.538Z,17.75
2023-03-29T19:32:22.547Z,21.98
2023-03-29T19:34:50.711Z,16.90
2023-03-29T19:37:19.138Z,17.05
2023-03-29T19:39:47.190Z,17.67
2023-03-29T19:42:15.467Z,16.95
2023-03-29T19:44:43.610Z,18.95
2023-03-29T19:47:13.557Z,18.25
2023-03-29T19:49:41.914Z,16.83
2023-03-29T19:52:10.822Z,16.77
2023-03-29T19:54:39.023Z,16.73
2023-03-29T19:57:10.256Z,13.45
2023-03-29T19:59:41.987Z,22.70
2023-03-29T20:02:12.973Z,23.83
2023-03-29T20:04:42.816Z,19.48
2023-03-29T20:07:13.153Z,14.32
2023-03-29T20:09:45.209Z,17.48
2023-03-29T20:12:15.461Z,21.07
2023-03-29T20:14:47.012Z,23.15
2023-03-29T20:17:16.541Z,19.48
2023-03-29T20:19:46.602Z,15.80
2023-03-29T20:22:15.818Z,19.63
2023-03-29T20:24:44.029Z,18.48
2023-03-29T20:27:12.162Z,17.05
2023-03-29T20:29:40.589Z,15.98
2023-03-29T20:32:09.568Z,24.67
2023-03-29T20:34:37.837Z,18.27
2023-03-29T20:37:06.466Z,20.08
2023-03-29T20:39:34.878Z,24.42
2023-03-29T20:42:02.891Z,22.08
2023-03-29T20:44:32.494Z,12.88
2023-03-29T20:47:06.919Z,18.75
2023-03-29T20:49:40.152Z,16.00
2023-03-29T20:54:39.030Z,16.15
2023-03-29T20:57:08.147Z,17.48
2023-03-29T20:59:36.279Z,19.05
2023-03-29T21:02:04.832Z,21.23
2023-03-29T21:04:33.001Z,14.80
2023-03-29T21:07:03.330Z,19.52
2023-03-29T21:09:34.369Z,14.73
2023-03-29T21:12:02.746Z,15.07
2023-03-29T21:14:33.346Z,15.07
2023-03-29T21:17:01.683Z,14.88
2023-03-29T21:19:29.818Z,20.23
2023-03-29T21:21:58.329Z,18.83
2023-03-29T21:24:26.390Z,19.08
2023-03-29T21:26:54.272Z,14.88
2023-03-29T21:29:22.160Z,14.70
2023-03-29T21:31:50.238Z,16.38
2023-03-29T21:34:18.241Z,13.63
2023-03-29T21:36:46.208Z,15.20
2023-03-29T21:39:14.376Z,15.13
2023-03-29T21:41:42.418Z,15.18
2023-03-29T21:44:10.586Z,14.15
2023-03-29T21:46:38.683Z,24.90
2023-03-29T21:49:06.778Z,13.13
2023-03-29T21:51:34.749Z,11.63
2023-03-29T21:54:02.902Z,14.50
2023-03-29T21:56:30.958Z,14.10
2023-03-29T21:58:58.959Z,13.63
2023-03-29T22:01:27.440Z,15.35
2023-03-29T22:03:56.421Z,20.98
2023-03-29T22:06:24.811Z,17.30
2023-03-29T22:08:53.386Z,16.63
2023-03-29T22:11:21.583Z,16.35
2023-03-29T22:13:52.653Z,16.00
2023-03-29T22:16:26.060Z,14.00
2023-03-29T22:18:54.482Z,11.85
2023-03-29T22:21:28.707Z,14.23
2023-03-29T22:23:58.112Z,13.48
2023-03-29T22:26:29.532Z,12.10
2023-03-29T22:28:59.104Z,17.13
2023-03-29T22:31:28.286Z,15.05
2023-03-29T22:33:57.038Z,10.43
2023-03-29T22:36:27.657Z,13.35
2023-03-29T22:38:56.274Z,17.73
2023-03-29T22:41:26.354Z,11.13
2023-03-29T22:43:56.965Z,13.38
2023-03-29T22:46:25.551Z,9.73
2023-03-29T22:48:53.588Z,13.07
2023-03-29T22:51:21.904Z,12.30
2023-03-29T22:53:49.936Z,12.27
2023-03-29T22:56:18.113Z,15.43
2023-03-29T22:58:46.627Z,11.38
2023-03-29T23:01:14.755Z,15.65
2023-03-29T23:03:42.711Z,20.17
2023-03-29T23:06:10.749Z,13.30
2023-03-29T23:08:38.731Z,12.98
2023-03-29T23:11:07.624Z,15.82
2023-03-29T23:13:35.672Z,14.02
2023-03-29T23:16:05.156Z,17.83
2023-03-29T23:18:37.949Z,17.23
2023-03-29T23:21:06.787Z,15.95
2023-03-29T23:23:36.320Z,12.82
2023-03-29T23:26:08.598Z,15.70
2023-03-29T23:28:36.680Z,14.97
2023-03-29T23:31:10.746Z,16.35
2023-03-29T23:33:42.948Z,17.92
2023-03-29T23:36:13.652Z,18.10
2023-03-29T23:38:42.527Z,14.57
2023-03-29T23:41:13.007Z,16.08
2023-03-29T23:43:43.194Z,15.10
2023-03-29T23:46:15.494Z,14.98
2023-03-29T23:48:49.235Z,18.55
2023-03-29T23:51:19.043Z,13.95
2023-03-29T23:53:48.017Z,16.35
2023-03-29T23:56:16.400Z,21.20
2023-03-29T23:58:44.768Z,17.63
